sensor_id;sensor_type;location;lat;lon;timestamp;temperature;humidity
72202;SHT30;60105;54.956;73.412;2023-07-02T00:01:20;18.24;54.90
72202;SHT30;60105;54.956;73.412;2023-07-02T00:04:21;18.26;55.58
72202;SHT30;60105;54.956;73.412;2023-07-02T00:07:22;18.28;55.82
72202;SHT30;60105;54.956;73.412;2023-07-02T00:10:25;18.30;54.64
72202;SHT30;60105;54.956;73.412;2023-07-02T00:13:26;18.26;55.54
72202;SHT30;60105;54.956;73.412;2023-07-02T00:16:28;18.24;55.01
72202;SHT30;60105;54.956;73.412;2023-07-02T00:19:29;18.18;54.22
72202;SHT30;60105;54.956;73.412;2023-07-02T00:23:12;18.21;54.39
72202;SHT30;60105;54.956;73.412;2023-07-02T00:26:13;18.23;54.66
72202;SHT30;60105;54.956;73.412;2023-07-02T00:29:15;18.14;54.54
72202;SHT30;60105;54.956;73.412;2023-07-02T00:32:17;18.11;55.73
72202;SHT30;60105;54.956;73.412;2023-07-02T00:35:18;18.07;56.30
72202;SHT30;60105;54.956;73.412;2023-07-02T00:38:19;18.07;54.38
72202;SHT30;60105;54.956;73.412;2023-07-02T00:41:21;18.04;54.79
72202;SHT30;60105;54.956;73.412;2023-07-02T00:44:22;18.07;54.56
72202;SHT30;60105;54.956;73.412;2023-07-02T00:47:23;18.03;54.98
72202;SHT30;60105;54.956;73.412;2023-07-02T00:50:25;18.07;55.35
72202;SHT30;60105;54.956;73.412;2023-07-02T00:53:27;18.06;54.80
72202;SHT30;60105;54.956;73.412;2023-07-02T00:56:29;18.07;55.08
72202;SHT30;60105;54.956;73.412;2023-07-02T00:59:31;18.11;53.61
72202;SHT30;60105;54.956;73.412;2023-07-02T01:03:12;18.11;53.57
72202;SHT30;60105;54.956;73.412;2023-07-02T01:06:13;18.13;54.08
72202;SHT30;60105;54.956;73.412;2023-07-02T01:09:16;18.20;53.55
72202;SHT30;60105;54.956;73.412;2023-07-02T01:12:18;18.26;53.31
72202;SHT30;60105;54.956;73.412;2023-07-02T01:15:23;18.35;53.08
72202;SHT30;60105;54.956;73.412;2023-07-02T01:18:24;18.43;52.72
72202;SHT30;60105;54.956;73.412;2023-07-02T01:21:26;18.49;52.59
72202;SHT30;60105;54.956;73.412;2023-07-02T01:24:28;18.59;52.20
72202;SHT30;60105;54.956;73.412;2023-07-02T01:27:41;18.65;52.14
72202;SHT30;60105;54.956;73.412;2023-07-02T01:30:42;18.72;52.06
72202;SHT30;60105;54.956;73.412;2023-07-02T01:33:44;18.82;51.79
72202;SHT30;60105;54.956;73.412;2023-07-02T01:36:45;18.89;52.58
72202;SHT30;60105;54.956;73.412;2023-07-02T01:39:47;18.96;52.11
72202;SHT30;60105;54.956;73.412;2023-07-02T01:43:12;19.00;51.83
72202;SHT30;60105;54.956;73.412;2023-07-02T01:46:13;19.12;51.38
72202;SHT30;60105;54.956;73.412;2023-07-02T01:49:18;19.19;51.62
72202;SHT30;60105;54.956;73.412;2023-07-02T01:52:20;19.27;51.12
72202;SHT30;60105;54.956;73.412;2023-07-02T01:55:21;19.35;51.49
72202;SHT30;60105;54.956;73.412;2023-07-02T01:58:23;19.40;51.52
72202;SHT30;60105;54.956;73.412;2023-07-02T02:01:24;19.47;51.66
72202;SHT30;60105;54.956;73.412;2023-07-02T02:04:26;19.54;51.40
72202;SHT30;60105;54.956;73.412;2023-07-02T02:07:27;19.63;51.05
72202;SHT30;60105;54.956;73.412;2023-07-02T02:10:29;19.71;51.17
72202;SHT30;60105;54.956;73.412;2023-07-02T02:13:31;19.78;50.94
72202;SHT30;60105;54.956;73.412;2023-07-02T02:16:33;19.84;51.37
72202;SHT30;60105;54.956;73.412;2023-07-02T02:19:35;19.91;51.15
72202;SHT30;60105;54.956;73.412;2023-07-02T02:23:12;19.99;50.90
72202;SHT30;60105;54.956;73.412;2023-07-02T02:26:14;20.08;50.81
72202;SHT30;60105;54.956;73.412;2023-07-02T02:29:15;20.16;51.81
72202;SHT30;60105;54.956;73.412;2023-07-02T02:32:17;20.22;51.42
72202;SHT30;60105;54.956;73.412;2023-07-02T02:35:22;20.26;51.28
72202;SHT30;60105;54.956;73.412;2023-07-02T02:38:25;20.39;51.43
72202;SHT30;60105;54.956;73.412;2023-07-02T02:41:26;20.44;51.68
72202;SHT30;60105;54.956;73.412;2023-07-02T02:44:28;20.52;52.25
72202;SHT30;60105;54.956;73.412;2023-07-02T02:48:12;20.64;52.20
72202;SHT30;60105;54.956;73.412;2023-07-02T02:51:13;20.74;52.44
72202;SHT30;60105;54.956;73.412;2023-07-02T02:54:15;20.80;52.07
72202;SHT30;60105;54.956;73.412;2023-07-02T02:57:16;20.91;52.11
72202;SHT30;60105;54.956;73.412;2023-07-02T03:00:17;21.00;52.07
72202;SHT30;60105;54.956;73.412;2023-07-02T03:03:19;21.11;51.92
72202;SHT30;60105;54.956;73.412;2023-07-02T03:06:21;21.18;51.67
72202;SHT30;60105;54.956;73.412;2023-07-02T03:09:23;21.28;51.75
72202;SHT30;60105;54.956;73.412;2023-07-02T03:12:27;21.38;51.69
72202;SHT30;60105;54.956;73.412;2023-07-02T03:15:29;21.49;51.06
72202;SHT30;60105;54.956;73.412;2023-07-02T03:18:30;21.63;50.59
72202;SHT30;60105;54.956;73.412;2023-07-02T03:21:31;21.72;50.38
72202;SHT30;60105;54.956;73.412;2023-07-02T03:24:33;21.83;50.23
72202;SHT30;60105;54.956;73.412;2023-07-02T03:27:40;22.00;50.28
72202;SHT30;60105;54.956;73.412;2023-07-02T03:30:42;22.10;50.07
72202;SHT30;60105;54.956;73.412;2023-07-02T03:33:43;22.24;49.45
72202;SHT30;60105;54.956;73.412;2023-07-02T03:36:44;22.34;48.98
72202;SHT30;60105;54.956;73.412;2023-07-02T03:39:46;22.47;48.16
72202;SHT30;60105;54.956;73.412;2023-07-02T03:43:12;22.58;47.61
72202;SHT30;60105;54.956;73.412;2023-07-02T03:46:13;22.66;47.03
72202;SHT30;60105;54.956;73.412;2023-07-02T03:49:15;22.79;48.10
72202;SHT30;60105;54.956;73.412;2023-07-02T03:52:16;22.91;47.76
72202;SHT30;60105;54.956;73.412;2023-07-02T03:55:18;23.00;47.88
72202;SHT30;60105;54.956;73.412;2023-07-02T03:58:20;23.10;47.36
72202;SHT30;60105;54.956;73.412;2023-07-02T04:01:22;23.23;47.68
72202;SHT30;60105;54.956;73.412;2023-07-02T04:04:23;23.33;47.94
72202;SHT30;60105;54.956;73.412;2023-07-02T04:07:24;23.49;48.10
72202;SHT30;60105;54.956;73.412;2023-07-02T04:10:26;23.54;48.22
72202;SHT30;60105;54.956;73.412;2023-07-02T04:13:27;23.70;46.51
72202;SHT30;60105;54.956;73.412;2023-07-02T04:16:28;23.81;46.45
72202;SHT30;60105;54.956;73.412;2023-07-02T04:19:29;23.91;46.40
72202;SHT30;60105;54.956;73.412;2023-07-02T04:23:12;24.01;45.67
72202;SHT30;60105;54.956;73.412;2023-07-02T04:26:13;24.18;45.68
72202;SHT30;60105;54.956;73.412;2023-07-02T04:29:14;24.28;45.58
72202;SHT30;60105;54.956;73.412;2023-07-02T04:32:16;24.36;45.39
72202;SHT30;60105;54.956;73.412;2023-07-02T04:35:17;24.49;45.73
72202;SHT30;60105;54.956;73.412;2023-07-02T04:38:19;24.59;45.56
72202;SHT30;60105;54.956;73.412;2023-07-02T04:41:20;24.67;45.53
72202;SHT30;60105;54.956;73.412;2023-07-02T04:44:22;24.79;45.03
72202;SHT30;60105;54.956;73.412;2023-07-02T04:48:12;24.94;43.56
72202;SHT30;60105;54.956;73.412;2023-07-02T04:51:14;25.11;44.19
72202;SHT30;60105;54.956;73.412;2023-07-02T04:54:17;25.25;43.53
72202;SHT30;60105;54.956;73.412;2023-07-02T04:57:18;25.38;43.06
72202;SHT30;60105;54.956;73.412;2023-07-02T05:00:20;25.57;41.33
72202;SHT30;60105;54.956;73.412;2023-07-02T05:03:23;25.70;39.74
72202;SHT30;60105;54.956;73.412;2023-07-02T05:06:24;25.79;40.39
72202;SHT30;60105;54.956;73.412;2023-07-02T05:09:25;25.89;39.22
72202;SHT30;60105;54.956;73.412;2023-07-02T05:12:27;25.94;38.94
72202;SHT30;60105;54.956;73.412;2023-07-02T05:15:28;26.04;38.44
72202;SHT30;60105;54.956;73.412;2023-07-02T05:18:29;26.09;39.10
72202;SHT30;60105;54.956;73.412;2023-07-02T05:21:31;26.20;38.62
72202;SHT30;60105;54.956;73.412;2023-07-02T05:24:32;26.34;37.28
72202;SHT30;60105;54.956;73.412;2023-07-02T05:27:40;26.43;37.61
72202;SHT30;60105;54.956;73.412;2023-07-02T05:30:42;26.48;38.78
72202;SHT30;60105;54.956;73.412;2023-07-02T05:33:43;26.58;37.61
72202;SHT30;60105;54.956;73.412;2023-07-02T05:36:45;26.65;37.63
72202;SHT30;60105;54.956;73.412;2023-07-02T05:39:46;26.76;37.58
72202;SHT30;60105;54.956;73.412;2023-07-02T05:43:12;26.85;37.73
72202;SHT30;60105;54.956;73.412;2023-07-02T05:46:14;26.99;36.90
72202;SHT30;60105;54.956;73.412;2023-07-02T05:49:16;27.03;37.28
72202;SHT30;60105;54.956;73.412;2023-07-02T05:52:18;27.09;36.83
72202;SHT30;60105;54.956;73.412;2023-07-02T05:55:23;27.17;36.73
72202;SHT30;60105;54.956;73.412;2023-07-02T05:58:25;27.25;36.11
72202;SHT30;60105;54.956;73.412;2023-07-02T06:01:26;27.26;36.15
72202;SHT30;60105;54.956;73.412;2023-07-02T06:04:27;27.39;36.86
72202;SHT30;60105;54.956;73.412;2023-07-02T06:08:12;27.55;35.72
72202;SHT30;60105;54.956;73.412;2023-07-02T06:11:13;27.57;35.51
72202;SHT30;60105;54.956;73.412;2023-07-02T06:14:15;27.61;36.19
72202;SHT30;60105;54.956;73.412;2023-07-02T06:17:16;27.68;35.83
72202;SHT30;60105;54.956;73.412;2023-07-02T06:20:17;27.76;36.65
72202;SHT30;60105;54.956;73.412;2023-07-02T06:23:19;27.83;35.18
72202;SHT30;60105;54.956;73.412;2023-07-02T06:26:20;27.91;36.41
72202;SHT30;60105;54.956;73.412;2023-07-02T06:29:23;28.02;35.69
72202;SHT30;60105;54.956;73.412;2023-07-02T06:32:24;28.08;35.84
72202;SHT30;60105;54.956;73.412;2023-07-02T06:35:26;28.16;35.26
72202;SHT30;60105;54.956;73.412;2023-07-02T06:38:27;28.22;35.88
72202;SHT30;60105;54.956;73.412;2023-07-02T06:41:28;28.31;34.51
72202;SHT30;60105;54.956;73.412;2023-07-02T06:44:30;28.31;34.81
72202;SHT30;60105;54.956;73.412;2023-07-02T06:48:11;28.38;36.11
72202;SHT30;60105;54.956;73.412;2023-07-02T06:51:12;28.48;35.31
72202;SHT30;60105;54.956;73.412;2023-07-02T06:54:15;28.53;34.71
72202;SHT30;60105;54.956;73.412;2023-07-02T06:57:17;28.55;35.03
72202;SHT30;60105;54.956;73.412;2023-07-02T07:00:18;28.66;34.46
72202;SHT30;60105;54.956;73.412;2023-07-02T07:03:19;28.70;34.69
72202;SHT30;60105;54.956;73.412;2023-07-02T07:06:21;28.76;34.84
72202;SHT30;60105;54.956;73.412;2023-07-02T07:09:22;28.83;35.03
72202;SHT30;60105;54.956;73.412;2023-07-02T07:12:23;28.91;33.75
72202;SHT30;60105;54.956;73.412;2023-07-02T07:15:26;28.96;33.56
72202;SHT30;60105;54.956;73.412;2023-07-02T07:18:27;29.03;34.24
72202;SHT30;60105;54.956;73.412;2023-07-02T07:21:29;29.07;33.51
72202;SHT30;60105;54.956;73.412;2023-07-02T07:24:30;29.12;33.36
72202;SHT30;60105;54.956;73.412;2023-07-02T07:27:40;29.14;34.10
72202;SHT30;60105;54.956;73.412;2023-07-02T07:30:44;29.21;33.56
72202;SHT30;60105;54.956;73.412;2023-07-02T07:33:46;29.24;33.76
72202;SHT30;60105;54.956;73.412;2023-07-02T07:36:47;29.32;33.45
72202;SHT30;60105;54.956;73.412;2023-07-02T07:39:48;29.34;33.00
72202;SHT30;60105;54.956;73.412;2023-07-02T07:43:12;29.45;33.11
72202;SHT30;60105;54.956;73.412;2023-07-02T07:46:13;29.48;32.53
72202;SHT30;60105;54.956;73.412;2023-07-02T07:49:14;29.57;33.02
72202;SHT30;60105;54.956;73.412;2023-07-02T07:52:15;29.59;32.72
72202;SHT30;60105;54.956;73.412;2023-07-02T07:55:17;29.63;33.13
72202;SHT30;60105;54.956;73.412;2023-07-02T07:58:18;29.73;33.94
72202;SHT30;60105;54.956;73.412;2023-07-02T08:01:19;29.90;32.65
72202;SHT30;60105;54.956;73.412;2023-07-02T08:04:23;29.90;31.72
72202;SHT30;60105;54.956;73.412;2023-07-02T08:07:24;29.99;31.13
72202;SHT30;60105;54.956;73.412;2023-07-02T08:10:25;29.97;32.66
72202;SHT30;60105;54.956;73.412;2023-07-02T08:13:29;30.05;32.57
72202;SHT30;60105;54.956;73.412;2023-07-02T08:16:30;30.03;30.92
72202;SHT30;60105;54.956;73.412;2023-07-02T08:19:31;30.03;31.97
72202;SHT30;60105;54.956;73.412;2023-07-02T08:23:12;30.09;32.23
72202;SHT30;60105;54.956;73.412;2023-07-02T08:26:13;30.16;31.09
72202;SHT30;60105;54.956;73.412;2023-07-02T08:29:15;30.21;30.80
72202;SHT30;60105;54.956;73.412;2023-07-02T08:32:17;30.24;32.09
72202;SHT30;60105;54.956;73.412;2023-07-02T08:35:18;30.34;31.08
72202;SHT30;60105;54.956;73.412;2023-07-02T08:38:20;30.37;30.45
72202;SHT30;60105;54.956;73.412;2023-07-02T08:41:21;30.44;31.17
72202;SHT30;60105;54.956;73.412;2023-07-02T08:44:25;30.45;30.89
72202;SHT30;60105;54.956;73.412;2023-07-02T08:47:27;30.40;30.36
72202;SHT30;60105;54.956;73.412;2023-07-02T08:50:29;30.34;29.46
72202;SHT30;60105;54.956;73.412;2023-07-02T08:53:30;30.40;30.24
72202;SHT30;60105;54.956;73.412;2023-07-02T08:56:34;30.48;30.10
72202;SHT30;60105;54.956;73.412;2023-07-02T08:59:36;30.55;29.54
72202;SHT30;60105;54.956;73.412;2023-07-02T09:03:15;30.61;29.58
72202;SHT30;60105;54.956;73.412;2023-07-02T09:06:17;30.57;28.91
72202;SHT30;60105;54.956;73.412;2023-07-02T09:09:19;30.61;30.04
72202;SHT30;60105;54.956;73.412;2023-07-02T09:12:30;30.75;29.60
72202;SHT30;60105;54.956;73.412;2023-07-02T09:18:38;30.77;29.05
72202;SHT30;60105;54.956;73.412;2023-07-02T09:21:49;30.82;29.59
72202;SHT30;60105;54.956;73.412;2023-07-02T09:24:52;30.84;29.75
72202;SHT30;60105;54.956;73.412;2023-07-02T09:27:58;30.91;29.73
72202;SHT30;60105;54.956;73.412;2023-07-02T09:31:00;30.92;29.49
72202;SHT30;60105;54.956;73.412;2023-07-02T09:34:02;31.02;29.57
72202;SHT30;60105;54.956;73.412;2023-07-02T09:37:04;31.14;28.97
72202;SHT30;60105;54.956;73.412;2023-07-02T09:40:08;31.22;29.38
72202;SHT30;60105;54.956;73.412;2023-07-02T09:43:12;31.29;29.51
72202;SHT30;60105;54.956;73.412;2023-07-02T09:46:13;31.36;29.51
72202;SHT30;60105;54.956;73.412;2023-07-02T09:49:16;31.40;27.85
72202;SHT30;60105;54.956;73.412;2023-07-02T09:52:18;31.49;28.58
72202;SHT30;60105;54.956;73.412;2023-07-02T09:55:21;31.50;28.06
72202;SHT30;60105;54.956;73.412;2023-07-02T09:58:23;31.51;28.26
72202;SHT30;60105;54.956;73.412;2023-07-02T10:01:25;31.49;28.31
72202;SHT30;60105;54.956;73.412;2023-07-02T10:04:26;31.56;28.46
72202;SHT30;60105;54.956;73.412;2023-07-02T10:07:29;31.60;28.08
72202;SHT30;60105;54.956;73.412;2023-07-02T10:10:32;31.63;27.78
72202;SHT30;60105;54.956;73.412;2023-07-02T10:13:33;31.69;29.26
72202;SHT30;60105;54.956;73.412;2023-07-02T10:16:47;31.74;28.62
72202;SHT30;60105;54.956;73.412;2023-07-02T10:19:53;31.77;28.66
72202;SHT30;60105;54.956;73.412;2023-07-02T10:23:12;31.78;27.21
72202;SHT30;60105;54.956;73.412;2023-07-02T10:26:18;31.81;28.77
72202;SHT30;60105;54.956;73.412;2023-07-02T10:29:19;31.93;28.40
72202;SHT30;60105;54.956;73.412;2023-07-02T10:32:28;32.00;28.53
72202;SHT30;60105;54.956;73.412;2023-07-02T10:35:33;31.94;28.16
72202;SHT30;60105;54.956;73.412;2023-07-02T10:38:35;31.98;28.82
72202;SHT30;60105;54.956;73.412;2023-07-02T10:41:36;32.10;29.78
72202;SHT30;60105;54.956;73.412;2023-07-02T10:44:51;32.22;29.10
72202;SHT30;60105;54.956;73.412;2023-07-02T10:48:12;32.28;29.21
72202;SHT30;60105;54.956;73.412;2023-07-02T10:51:13;32.27;27.93
72202;SHT30;60105;54.956;73.412;2023-07-02T10:54:14;32.28;28.37
72202;SHT30;60105;54.956;73.412;2023-07-02T10:57:19;32.35;28.07
72202;SHT30;60105;54.956;73.412;2023-07-02T11:00:23;32.35;28.73
72202;SHT30;60105;54.956;73.412;2023-07-02T11:03:26;32.46;27.52
72202;SHT30;60105;54.956;73.412;2023-07-02T11:06:28;32.48;28.24
72202;SHT30;60105;54.956;73.412;2023-07-02T11:09:30;32.60;27.97
72202;SHT30;60105;54.956;73.412;2023-07-02T11:13:16;32.68;29.42
72202;SHT30;60105;54.956;73.412;2023-07-02T11:16:23;32.75;27.72
72202;SHT30;60105;54.956;73.412;2023-07-02T11:19:26;32.82;29.10
72202;SHT30;60105;54.956;73.412;2023-07-02T11:23:22;32.91;28.51
72202;SHT30;60105;54.956;73.412;2023-07-02T11:26:35;33.06;28.36
72202;SHT30;60105;54.956;73.412;2023-07-02T11:29:36;33.07;26.64
72202;SHT30;60105;54.956;73.412;2023-07-02T11:33:12;33.07;27.78
72202;SHT30;60105;54.956;73.412;2023-07-02T11:36:20;33.09;27.06
72202;SHT30;60105;54.956;73.412;2023-07-02T11:39:23;33.07;26.68
72202;SHT30;60105;54.956;73.412;2023-07-02T11:43:11;33.06;27.38
72202;SHT30;60105;54.956;73.412;2023-07-02T11:46:13;33.06;27.01
72202;SHT30;60105;54.956;73.412;2023-07-02T11:49:14;33.03;27.63
72202;SHT30;60105;54.956;73.412;2023-07-02T11:52:23;32.90;28.00
72202;SHT30;60105;54.956;73.412;2023-07-02T11:55:25;32.75;28.76
72202;SHT30;60105;54.956;73.412;2023-07-02T11:58:26;32.63;27.70
72202;SHT30;60105;54.956;73.412;2023-07-02T12:01:30;32.66;28.60
72202;SHT30;60105;54.956;73.412;2023-07-02T12:04:31;32.65;28.33
72202;SHT30;60105;54.956;73.412;2023-07-02T12:08:12;32.58;27.92
72202;SHT30;60105;54.956;73.412;2023-07-02T12:11:13;32.69;27.65
72202;SHT30;60105;54.956;73.412;2023-07-02T12:14:16;32.76;27.38
72202;SHT30;60105;54.956;73.412;2023-07-02T12:17:17;32.69;28.09
72202;SHT30;60105;54.956;73.412;2023-07-02T12:20:19;32.58;28.15
72202;SHT30;60105;54.956;73.412;2023-07-02T12:23:20;32.32;28.13
72202;SHT30;60105;54.956;73.412;2023-07-02T12:26:22;32.08;27.50
72202;SHT30;60105;54.956;73.412;2023-07-02T12:29:23;32.08;28.02
72202;SHT30;60105;54.956;73.412;2023-07-02T12:32:24;32.15;28.30
72202;SHT30;60105;54.956;73.412;2023-07-02T12:35:26;32.22;27.31
72202;SHT30;60105;54.956;73.412;2023-07-02T12:38:27;32.39;28.88
72202;SHT30;60105;54.956;73.412;2023-07-02T12:41:28;32.53;28.40
72202;SHT30;60105;54.956;73.412;2023-07-02T12:44:30;32.69;30.07
72202;SHT30;60105;54.956;73.412;2023-07-02T12:48:12;32.70;27.33
72202;SHT30;60105;54.956;73.412;2023-07-02T12:51:13;32.70;26.54
72202;SHT30;60105;54.956;73.412;2023-07-02T12:54:14;32.69;25.97
72202;SHT30;60105;54.956;73.412;2023-07-02T12:57:17;32.65;26.43
72202;SHT30;60105;54.956;73.412;2023-07-02T13:00:18;32.66;26.10
72202;SHT30;60105;54.956;73.412;2023-07-02T13:03:20;32.70;27.04
72202;SHT30;60105;54.956;73.412;2023-07-02T13:06:21;32.70;28.56
72202;SHT30;60105;54.956;73.412;2023-07-02T13:09:23;32.63;26.90
72202;SHT30;60105;54.956;73.412;2023-07-02T13:12:24;32.56;27.17
72202;SHT30;60105;54.956;73.412;2023-07-02T13:15:25;32.53;27.28
72202;SHT30;60105;54.956;73.412;2023-07-02T13:18:26;32.48;27.45
72202;SHT30;60105;54.956;73.412;2023-07-02T13:21:28;32.42;26.74
72202;SHT30;60105;54.956;73.412;2023-07-02T13:24:33;32.39;27.63
72202;SHT30;60105;54.956;73.412;2023-07-02T13:27:40;32.35;28.39
72202;SHT30;60105;54.956;73.412;2023-07-02T13:30:41;32.31;26.26
72202;SHT30;60105;54.956;73.412;2023-07-02T13:33:43;32.31;27.91
72202;SHT30;60105;54.956;73.412;2023-07-02T13:36:44;32.49;28.20
72202;SHT30;60105;54.956;73.412;2023-07-02T13:39:47;32.86;26.14
72202;SHT30;60105;54.956;73.412;2023-07-02T13:43:11;33.53;27.20
72202;SHT30;60105;54.956;73.412;2023-07-02T13:46:13;34.42;25.31
72202;SHT30;60105;54.956;73.412;2023-07-02T13:49:15;35.14;25.59
72202;SHT30;60105;54.956;73.412;2023-07-02T13:52:17;35.73;24.75
72202;SHT30;60105;54.956;73.412;2023-07-02T13:55:18;36.15;22.76
72202;SHT30;60105;54.956;73.412;2023-07-02T13:58:21;36.58;24.12
72202;SHT30;60105;54.956;73.412;2023-07-02T14:01:24;36.77;23.67
72202;SHT30;60105;54.956;73.412;2023-07-02T14:04:25;36.94;22.29
72202;SHT30;60105;54.956;73.412;2023-07-02T14:07:26;37.09;23.70
72202;SHT30;60105;54.956;73.412;2023-07-02T14:10:28;37.29;24.42
72202;SHT30;60105;54.956;73.412;2023-07-02T14:13:29;37.32;25.60
72202;SHT30;60105;54.956;73.412;2023-07-02T14:16:30;37.19;23.71
72202;SHT30;60105;54.956;73.412;2023-07-02T14:19:32;37.23;22.66
72202;SHT30;60105;54.956;73.412;2023-07-02T14:23:12;37.30;21.08
72202;SHT30;60105;54.956;73.412;2023-07-02T14:26:15;37.37;23.51
72202;SHT30;60105;54.956;73.412;2023-07-02T14:29:16;37.18;23.18
72202;SHT30;60105;54.956;73.412;2023-07-02T14:32:17;36.58;22.36
72202;SHT30;60105;54.956;73.412;2023-07-02T14:35:19;36.20;22.84
72202;SHT30;60105;54.956;73.412;2023-07-02T14:38:23;36.52;22.08
72202;SHT30;60105;54.956;73.412;2023-07-02T14:41:24;36.57;23.00
72202;SHT30;60105;54.956;73.412;2023-07-02T14:44:26;36.23;22.32
72202;SHT30;60105;54.956;73.412;2023-07-02T14:47:27;35.32;23.58
72202;SHT30;60105;54.956;73.412;2023-07-02T14:50:28;34.33;25.26
72202;SHT30;60105;54.956;73.412;2023-07-02T14:53:31;33.51;26.01
72202;SHT30;60105;54.956;73.412;2023-07-02T14:56:33;33.94;25.54
72202;SHT30;60105;54.956;73.412;2023-07-02T14:59:36;34.29;25.37
72202;SHT30;60105;54.956;73.412;2023-07-02T15:03:12;34.20;25.69
72202;SHT30;60105;54.956;73.412;2023-07-02T15:06:16;34.04;25.95
72202;SHT30;60105;54.956;73.412;2023-07-02T15:09:18;33.82;26.44
72202;SHT30;60105;54.956;73.412;2023-07-02T15:12:20;33.46;26.49
72202;SHT30;60105;54.956;73.412;2023-07-02T15:15:21;33.07;27.31
72202;SHT30;60105;54.956;73.412;2023-07-02T15:18:25;32.70;27.15
72202;SHT30;60105;54.956;73.412;2023-07-02T15:21:26;32.07;28.55
72202;SHT30;60105;54.956;73.412;2023-07-02T15:24:27;31.43;29.10
72202;SHT30;60105;54.956;73.412;2023-07-02T15:27:40;30.91;29.89
72202;SHT30;60105;54.956;73.412;2023-07-02T15:30:41;30.51;30.02
72202;SHT30;60105;54.956;73.412;2023-07-02T15:33:43;30.23;30.50
72202;SHT30;60105;54.956;73.412;2023-07-02T15:36:46;29.95;31.20
72202;SHT30;60105;54.956;73.412;2023-07-02T15:39:48;29.66;32.09
72202;SHT30;60105;54.956;73.412;2023-07-02T15:43:11;29.39;32.32
72202;SHT30;60105;54.956;73.412;2023-07-02T15:46:16;29.14;32.93
72202;SHT30;60105;54.956;73.412;2023-07-02T15:49:18;28.91;32.63
72202;SHT30;60105;54.956;73.412;2023-07-02T15:52:20;28.74;33.43
72202;SHT30;60105;54.956;73.412;2023-07-02T15:55:21;28.57;33.57
72202;SHT30;60105;54.956;73.412;2023-07-02T15:58:24;28.36;34.30
72202;SHT30;60105;54.956;73.412;2023-07-02T16:01:26;28.23;34.69
72202;SHT30;60105;54.956;73.412;2023-07-02T16:04:28;28.09;34.79
72202;SHT30;60105;54.956;73.412;2023-07-02T16:08:12;27.94;35.41
72202;SHT30;60105;54.956;73.412;2023-07-02T16:11:14;27.83;35.60
72202;SHT30;60105;54.956;73.412;2023-07-02T16:14:17;27.73;35.74
72202;SHT30;60105;54.956;73.412;2023-07-02T16:17:24;27.60;35.77
72202;SHT30;60105;54.956;73.412;2023-07-02T16:20:25;27.49;36.03
72202;SHT30;60105;54.956;73.412;2023-07-02T16:23:27;27.37;36.44
72202;SHT30;60105;54.956;73.412;2023-07-02T16:26:28;27.26;36.48
72202;SHT30;60105;54.956;73.412;2023-07-02T16:29:30;27.17;36.86
72202;SHT30;60105;54.956;73.412;2023-07-02T16:33:13;27.06;37.18
72202;SHT30;60105;54.956;73.412;2023-07-02T16:36:14;26.95;37.27
72202;SHT30;60105;54.956;73.412;2023-07-02T16:39:17;26.85;37.68
72202;SHT30;60105;54.956;73.412;2023-07-02T16:42:19;26.82;37.96
72202;SHT30;60105;54.956;73.412;2023-07-02T16:45:20;26.69;38.22
72202;SHT30;60105;54.956;73.412;2023-07-02T16:48:22;26.59;38.37
72202;SHT30;60105;54.956;73.412;2023-07-02T16:51:23;26.48;38.61
72202;SHT30;60105;54.956;73.412;2023-07-02T16:54:25;26.40;38.47
72202;SHT30;60105;54.956;73.412;2023-07-02T16:57:27;26.33;38.37
72202;SHT30;60105;54.956;73.412;2023-07-02T17:00:31;26.23;38.65
72202;SHT30;60105;54.956;73.412;2023-07-02T17:03:32;26.18;38.71
72202;SHT30;60105;54.956;73.412;2023-07-02T17:06:33;26.10;38.80
72202;SHT30;60105;54.956;73.412;2023-07-02T17:09:37;26.03;38.90
72202;SHT30;60105;54.956;73.412;2023-07-02T17:13:12;25.93;38.97
72202;SHT30;60105;54.956;73.412;2023-07-02T17:16:13;25.85;39.24
72202;SHT30;60105;54.956;73.412;2023-07-02T17:19:14;25.79;39.44
72202;SHT30;60105;54.956;73.412;2023-07-02T17:22:18;25.70;39.64
72202;SHT30;60105;54.956;73.412;2023-07-02T17:25:19;25.61;39.84
72202;SHT30;60105;54.956;73.412;2023-07-02T17:28:21;25.53;40.13
72202;SHT30;60105;54.956;73.412;2023-07-02T17:31:23;25.45;40.22
72202;SHT30;60105;54.956;73.412;2023-07-02T17:34:25;25.38;40.63
72202;SHT30;60105;54.956;73.412;2023-07-02T17:37:27;25.25;40.71
72202;SHT30;60105;54.956;73.412;2023-07-02T17:40:29;25.18;41.05
72202;SHT30;60105;54.956;73.412;2023-07-02T17:43:34;25.12;40.68
72202;SHT30;60105;54.956;73.412;2023-07-02T17:46:35;25.07;40.62
72202;SHT30;60105;54.956;73.412;2023-07-02T17:49:43;25.01;40.51
72202;SHT30;60105;54.956;73.412;2023-07-02T17:53:12;24.97;40.45
72202;SHT30;60105;54.956;73.412;2023-07-02T17:56:13;24.91;40.28
72202;SHT30;60105;54.956;73.412;2023-07-02T17:59:15;24.90;40.30
72202;SHT30;60105;54.956;73.412;2023-07-02T18:02:17;24.86;40.12
72202;SHT30;60105;54.956;73.412;2023-07-02T18:05:18;24.83;40.20
72202;SHT30;60105;54.956;73.412;2023-07-02T18:08:22;24.79;40.05
72202;SHT30;60105;54.956;73.412;2023-07-02T18:11:23;24.70;40.24
72202;SHT30;60105;54.956;73.412;2023-07-02T18:14:25;24.67;40.10
72202;SHT30;60105;54.956;73.412;2023-07-02T18:17:27;24.66;40.14
72202;SHT30;60105;54.956;73.412;2023-07-02T18:20:28;24.62;40.18
72202;SHT30;60105;54.956;73.412;2023-07-02T18:23:30;24.59;40.12
72202;SHT30;60105;54.956;73.412;2023-07-02T18:26:31;24.62;40.08
72202;SHT30;60105;54.956;73.412;2023-07-02T18:29:34;24.53;40.11
72202;SHT30;60105;54.956;73.412;2023-07-02T18:33:12;24.48;40.60
72202;SHT30;60105;54.956;73.412;2023-07-02T18:36:17;24.48;40.36
72202;SHT30;60105;54.956;73.412;2023-07-02T18:39:18;24.40;40.50
72202;SHT30;60105;54.956;73.412;2023-07-02T18:42:22;24.39;40.44
72202;SHT30;60105;54.956;73.412;2023-07-02T18:45:26;24.36;40.67
72202;SHT30;60105;54.956;73.412;2023-07-02T18:48:27;24.30;40.99
72202;SHT30;60105;54.956;73.412;2023-07-02T18:51:29;24.26;40.87
72202;SHT30;60105;54.956;73.412;2023-07-02T18:54:30;24.21;41.23
72202;SHT30;60105;54.956;73.412;2023-07-02T18:57:40;24.19;41.12
72202;SHT30;60105;54.956;73.412;2023-07-02T19:00:43;24.16;41.11
72202;SHT30;60105;54.956;73.412;2023-07-02T19:03:44;24.11;41.15
72202;SHT30;60105;54.956;73.412;2023-07-02T19:06:48;24.04;41.25
72202;SHT30;60105;54.956;73.412;2023-07-02T19:09:49;23.95;41.54
72202;SHT30;60105;54.956;73.412;2023-07-02T19:13:12;23.89;41.99